sensor_id;sensor_type;location;lat;lon;timestamp;P1;durP1;ratioP1;P2;durP2;ratioP2
21777;SDS011;11050;52.222;20.916;2022-11-18T00:01:18;26.03;;;13.23;;
21777;SDS011;11050;52.222;20.916;2022-11-18T00:03:47;25.03;;;14.50;;
21777;SDS011;11050;52.222;20.916;2022-11-18T00:06:15;23.40;;;13.93;;
21777;SDS011;11050;52.222;20.916;2022-11-18T00:08:46;24.83;;;13.37;;
21777;SDS011;11050;52.222;20.916;2022-11-18T00:11:14;26.93;;;13.93;;
21777;SDS011;11050;52.222;20.916;2022-11-18T00:14:04;25.00;;;14.17;;
21777;SDS011;11050;52.222;20.916;2022-11-18T00:16:48;23.77;;;13.63;;
21777;SDS011;11050;52.222;20.916;2022-11-18T00:19:16;25.50;;;15.10;;
21777;SDS011;11050;52.222;20.916;2022-11-18T00:21:44;24.87;;;14.17;;
21777;SDS011;11050;52.222;20.916;2022-11-18T00:24:10;24.47;;;13.27;;
21777;SDS011;11050;52.222;20.916;2022-11-18T00:26:36;22.07;;;13.33;;
21777;SDS011;11050;52.222;20.916;2022-11-18T00:29:02;26.93;;;14.50;;
21777;SDS011;11050;52.222;20.916;2022-11-18T00:31:28;27.83;;;14.70;;
21777;SDS011;11050;52.222;20.916;2022-11-18T00:33:54;20.87;;;13.30;;
21777;SDS011;11050;52.222;20.916;2022-11-18T00:36:19;26.57;;;14.03;;
21777;SDS011;11050;52.222;20.916;2022-11-18T00:38:45;24.07;;;13.90;;
21777;SDS011;11050;52.222;20.916;2022-11-18T00:41:12;22.63;;;13.20;;
21777;SDS011;11050;52.222;20.916;2022-11-18T00:43:40;20.60;;;13.60;;
21777;SDS011;11050;52.222;20.916;2022-11-18T00:46:08;21.17;;;12.43;;
21777;SDS011;11050;52.222;20.916;2022-11-18T00:48:36;22.00;;;14.00;;
21777;SDS011;11050;52.222;20.916;2022-11-18T00:51:16;23.60;;;14.40;;
21777;SDS011;11050;52.222;20.916;2022-11-18T00:53:42;22.27;;;13.80;;
21777;SDS011;11050;52.222;20.916;2022-11-18T00:56:09;27.13;;;14.83;;
21777;SDS011;11050;52.222;20.916;2022-11-18T00:58:35;21.93;;;13.73;;
21777;SDS011;11050;52.222;20.916;2022-11-18T01:01:01;23.87;;;14.90;;
21777;SDS011;11050;52.222;20.916;2022-11-18T01:03:28;23.20;;;13.90;;
21777;SDS011;11050;52.222;20.916;2022-11-18T01:05:55;20.77;;;13.10;;
21777;SDS011;11050;52.222;20.916;2022-11-18T01:08:21;20.30;;;12.20;;
21777;SDS011;11050;52.222;20.916;2022-11-18T01:10:48;22.83;;;13.57;;
21777;SDS011;11050;52.222;20.916;2022-11-18T01:13:16;21.73;;;12.83;;
21777;SDS011;11050;52.222;20.916;2022-11-18T01:15:51;21.23;;;12.43;;
21777;SDS011;11050;52.222;20.916;2022-11-18T01:18:24;20.57;;;12.53;;
21777;SDS011;11050;52.222;20.916;2022-11-18T01:20:58;20.60;;;13.27;;
21777;SDS011;11050;52.222;20.916;2022-11-18T01:23:26;21.07;;;13.13;;
21777;SDS011;11050;52.222;20.916;2022-11-18T01:25:52;21.40;;;13.07;;
21777;SDS011;11050;52.222;20.916;2022-11-18T01:28:19;20.90;;;12.30;;
21777;SDS011;11050;52.222;20.916;2022-11-18T01:30:44;19.73;;;12.13;;
21777;SDS011;11050;52.222;20.916;2022-11-18T01:33:11;19.00;;;11.80;;
21777;SDS011;11050;52.222;20.916;2022-11-18T01:35:41;19.03;;;12.03;;
21777;SDS011;11050;52.222;20.916;2022-11-18T01:38:12;21.43;;;13.17;;
21777;SDS011;11050;52.222;20.916;2022-11-18T01:40:39;21.43;;;12.87;;
21777;SDS011;11050;52.222;20.916;2022-11-18T01:43:13;21.37;;;11.97;;
21777;SDS011;11050;52.222;20.916;2022-11-18T01:45:43;23.03;;;13.00;;
21777;SDS011;11050;52.222;20.916;2022-11-18T01:48:14;21.13;;;12.40;;
21777;SDS011;11050;52.222;20.916;2022-11-18T01:50:55;19.33;;;12.73;;
21777;SDS011;11050;52.222;20.916;2022-11-18T01:53:31;24.47;;;12.73;;
21777;SDS011;11050;52.222;20.916;2022-11-18T01:56:11;21.23;;;13.37;;
21777;SDS011;11050;52.222;20.916;2022-11-18T01:58:47;23.80;;;13.87;;
21777;SDS011;11050;52.222;20.916;2022-11-18T02:01:21;19.70;;;12.20;;
21777;SDS011;11050;52.222;20.916;2022-11-18T02:03:47;21.63;;;12.57;;
21777;SDS011;11050;52.222;20.916;2022-11-18T02:06:14;20.23;;;12.40;;
21777;SDS011;11050;52.222;20.916;2022-11-18T02:08:40;18.57;;;11.93;;
21777;SDS011;11050;52.222;20.916;2022-11-18T02:11:11;20.00;;;12.17;;
21777;SDS011;11050;52.222;20.916;2022-11-18T02:13:58;22.13;;;13.27;;
21777;SDS011;11050;52.222;20.916;2022-11-18T02:16:35;22.13;;;12.20;;
21777;SDS011;11050;52.222;20.916;2022-11-18T02:31:07;19.63;;;12.10;;
21777;SDS011;11050;52.222;20.916;2022-11-18T02:33:47;20.20;;;11.37;;
21777;SDS011;11050;52.222;20.916;2022-11-18T02:36:39;18.57;;;11.37;;
21777;SDS011;11050;52.222;20.916;2022-11-18T02:39:20;17.30;;;10.30;;
21777;SDS011;11050;52.222;20.916;2022-11-18T02:42:01;20.23;;;11.77;;
21777;SDS011;11050;52.222;20.916;2022-11-18T02:44:34;19.87;;;11.43;;
21777;SDS011;11050;52.222;20.916;2022-11-18T02:47:07;18.13;;;11.20;;
21777;SDS011;11050;52.222;20.916;2022-11-18T02:49:49;18.83;;;10.73;;
21777;SDS011;11050;52.222;20.916;2022-11-18T02:52:22;19.43;;;10.60;;
21777;SDS011;11050;52.222;20.916;2022-11-18T02:54:51;18.90;;;10.90;;
21777;SDS011;11050;52.222;20.916;2022-11-18T02:57:19;18.03;;;10.97;;
21777;SDS011;11050;52.222;20.916;2022-11-18T02:59:48;20.60;;;10.83;;
21777;SDS011;11050;52.222;20.916;2022-11-18T03:02:17;18.50;;;11.23;;
21777;SDS011;11050;52.222;20.916;2022-11-18T03:04:45;15.87;;;10.17;;
21777;SDS011;11050;52.222;20.916;2022-11-18T03:07:23;16.23;;;10.57;;
21777;SDS011;11050;52.222;20.916;2022-11-18T03:09:56;17.07;;;11.03;;
21777;SDS011;11050;52.222;20.916;2022-11-18T03:20:41;16.67;;;9.83;;
21777;SDS011;11050;52.222;20.916;2022-11-18T03:23:37;18.70;;;11.67;;
21777;SDS011;11050;52.222;20.916;2022-11-18T03:26:28;21.77;;;12.20;;
21777;SDS011;11050;52.222;20.916;2022-11-18T03:31:37;21.50;;;12.47;;
21777;SDS011;11050;52.222;20.916;2022-11-18T03:34:18;24.63;;;13.20;;
21777;SDS011;11050;52.222;20.916;2022-11-18T03:36:52;21.83;;;12.47;;
21777;SDS011;11050;52.222;20.916;2022-11-18T03:39:27;23.17;;;13.37;;
21777;SDS011;11050;52.222;20.916;2022-11-18T03:42:18;23.60;;;13.80;;
21777;SDS011;11050;52.222;20.916;2022-11-18T03:44:57;26.37;;;14.27;;
21777;SDS011;11050;52.222;20.916;2022-11-18T03:47:46;23.40;;;13.00;;
21777;SDS011;11050;52.222;20.916;2022-11-18T03:50:37;24.07;;;13.37;;
21777;SDS011;11050;52.222;20.916;2022-11-18T03:53:08;22.33;;;13.13;;
21777;SDS011;11050;52.222;20.916;2022-11-18T03:55:40;18.07;;;10.60;;
21777;SDS011;11050;52.222;20.916;2022-11-18T03:58:26;22.30;;;11.77;;
21777;SDS011;11050;52.222;20.916;2022-11-18T04:01:39;17.27;;;9.57;;
21777;SDS011;11050;52.222;20.916;2022-11-18T04:04:18;16.03;;;9.60;;
21777;SDS011;11050;52.222;20.916;2022-11-18T04:06:53;14.03;;;7.60;;
21777;SDS011;11050;52.222;20.916;2022-11-18T04:09:53;13.53;;;8.13;;
21777;SDS011;11050;52.222;20.916;2022-11-18T04:12:36;17.17;;;9.90;;
21777;SDS011;11050;52.222;20.916;2022-11-18T04:15:44;15.83;;;9.10;;
21777;SDS011;11050;52.222;20.916;2022-11-18T04:18:10;17.17;;;9.13;;
21777;SDS011;11050;52.222;20.916;2022-11-18T04:20:35;14.23;;;8.53;;
21777;SDS011;11050;52.222;20.916;2022-11-18T04:23:02;14.07;;;8.23;;
21777;SDS011;11050;52.222;20.916;2022-11-18T04:25:30;16.83;;;9.97;;
21777;SDS011;11050;52.222;20.916;2022-11-18T04:27:56;15.07;;;8.80;;
21777;SDS011;11050;52.222;20.916;2022-11-18T04:30:22;15.73;;;9.80;;
21777;SDS011;11050;52.222;20.916;2022-11-18T04:32:47;16.77;;;9.67;;
21777;SDS011;11050;52.222;20.916;2022-11-18T04:35:13;20.97;;;10.67;;
21777;SDS011;11050;52.222;20.916;2022-11-18T04:37:39;19.90;;;10.77;;
21777;SDS011;11050;52.222;20.916;2022-11-18T04:40:05;18.27;;;10.23;;
21777;SDS011;11050;52.222;20.916;2022-11-18T04:42:33;19.90;;;10.53;;
21777;SDS011;11050;52.222;20.916;2022-11-18T04:44:58;19.83;;;10.27;;
21777;SDS011;11050;52.222;20.916;2022-11-18T04:47:24;17.27;;;9.90;;
21777;SDS011;11050;52.222;20.916;2022-11-18T04:49:50;19.30;;;10.40;;
21777;SDS011;11050;52.222;20.916;2022-11-18T04:52:16;17.73;;;10.40;;
21777;SDS011;11050;52.222;20.916;2022-11-18T04:54:41;20.97;;;10.63;;
21777;SDS011;11050;52.222;20.916;2022-11-18T04:57:07;15.50;;;9.10;;
21777;SDS011;11050;52.222;20.916;2022-11-18T04:59:34;20.63;;;10.03;;
21777;SDS011;11050;52.222;20.916;2022-11-18T05:01:59;21.13;;;10.60;;
21777;SDS011;11050;52.222;20.916;2022-11-18T05:04:27;16.90;;;9.60;;
21777;SDS011;11050;52.222;20.916;2022-11-18T05:06:56;16.70;;;9.60;;
21777;SDS011;11050;52.222;20.916;2022-11-18T05:09:24;18.33;;;9.97;;
21777;SDS011;11050;52.222;20.916;2022-11-18T05:11:51;17.80;;;9.87;;
21777;SDS011;11050;52.222;20.916;2022-11-18T05:14:36;16.80;;;9.73;;
21777;SDS011;11050;52.222;20.916;2022-11-18T05:17:02;18.03;;;10.30;;
21777;SDS011;11050;52.222;20.916;2022-11-18T05:19:30;15.60;;;9.07;;
21777;SDS011;11050;52.222;20.916;2022-11-18T05:21:56;17.83;;;10.37;;
21777;SDS011;11050;52.222;20.916;2022-11-18T05:24:22;18.33;;;10.03;;
21777;SDS011;11050;52.222;20.916;2022-11-18T05:26:48;17.13;;;8.87;;
21777;SDS011;11050;52.222;20.916;2022-11-18T05:29:16;18.67;;;9.40;;
21777;SDS011;11050;52.222;20.916;2022-11-18T05:31:44;18.53;;;10.30;;
21777;SDS011;11050;52.222;20.916;2022-11-18T05:34:11;15.83;;;9.43;;
21777;SDS011;11050;52.222;20.916;2022-11-18T05:36:38;16.27;;;9.20;;
21777;SDS011;11050;52.222;20.916;2022-11-18T05:39:04;17.20;;;9.07;;
21777;SDS011;11050;52.222;20.916;2022-11-18T05:41:30;15.10;;;7.80;;
21777;SDS011;11050;52.222;20.916;2022-11-18T05:44:14;14.63;;;7.87;;
21777;SDS011;11050;52.222;20.916;2022-11-18T05:46:40;14.13;;;8.27;;
21777;SDS011;11050;52.222;20.916;2022-11-18T05:49:06;13.00;;;7.30;;
21777;SDS011;11050;52.222;20.916;2022-11-18T05:51:32;13.40;;;7.57;;
21777;SDS011;11050;52.222;20.916;2022-11-18T05:53:58;14.77;;;7.33;;
21777;SDS011;11050;52.222;20.916;2022-11-18T05:59:05;11.83;;;6.57;;
21777;SDS011;11050;52.222;20.916;2022-11-18T06:06:44;10.70;;;5.63;;
21777;SDS011;11050;52.222;20.916;2022-11-18T06:09:12;10.37;;;6.00;;
21777;SDS011;11050;52.222;20.916;2022-11-18T06:11:44;11.00;;;6.63;;
21777;SDS011;11050;52.222;20.916;2022-11-18T06:14:18;10.37;;;6.07;;
21777;SDS011;11050;52.222;20.916;2022-11-18T06:16:56;11.83;;;6.37;;
21777;SDS011;11050;52.222;20.916;2022-11-18T06:19:28;11.67;;;6.83;;
21777;SDS011;11050;52.222;20.916;2022-11-18T06:21:55;13.43;;;7.00;;
21777;SDS011;11050;52.222;20.916;2022-11-18T06:24:23;12.57;;;6.87;;
21777;SDS011;11050;52.222;20.916;2022-11-18T06:26:49;12.17;;;6.53;;
21777;SDS011;11050;52.222;20.916;2022-11-18T06:29:16;12.50;;;6.50;;
21777;SDS011;11050;52.222;20.916;2022-11-18T06:31:44;12.33;;;6.97;;
21777;SDS011;11050;52.222;20.916;2022-11-18T06:34:10;13.60;;;6.77;;
21777;SDS011;11050;52.222;20.916;2022-11-18T06:36:36;11.20;;;7.07;;
21777;SDS011;11050;52.222;20.916;2022-11-18T06:39:05;11.40;;;6.47;;
21777;SDS011;11050;52.222;20.916;2022-11-18T06:41:31;10.50;;;6.17;;
21777;SDS011;11050;52.222;20.916;2022-11-18T06:43:58;12.10;;;6.97;;
21777;SDS011;11050;52.222;20.916;2022-11-18T06:46:24;11.50;;;6.67;;
21777;SDS011;11050;52.222;20.916;2022-11-18T06:49:08;12.30;;;6.67;;
21777;SDS011;11050;52.222;20.916;2022-11-18T06:51:34;11.17;;;6.27;;
21777;SDS011;11050;52.222;20.916;2022-11-18T06:54:00;12.37;;;6.70;;
21777;SDS011;11050;52.222;20.916;2022-11-18T06:56:25;12.53;;;6.40;;
21777;SDS011;11050;52.222;20.916;2022-11-18T06:58:55;11.17;;;6.43;;
21777;SDS011;11050;52.222;20.916;2022-11-18T07:01:27;10.30;;;6.10;;
21777;SDS011;11050;52.222;20.916;2022-11-18T07:03:59;10.10;;;5.63;;
21777;SDS011;11050;52.222;20.916;2022-11-18T07:06:26;13.17;;;6.43;;
21777;SDS011;11050;52.222;20.916;2022-11-18T07:08:55;12.30;;;6.27;;
21777;SDS011;11050;52.222;20.916;2022-11-18T07:11:24;12.70;;;6.60;;
21777;SDS011;11050;52.222;20.916;2022-11-18T07:13:50;10.47;;;6.43;;
21777;SDS011;11050;52.222;20.916;2022-11-18T07:16:18;15.20;;;6.53;;
21777;SDS011;11050;52.222;20.916;2022-11-18T07:18:47;10.03;;;5.83;;
21777;SDS011;11050;52.222;20.916;2022-11-18T07:21:19;11.80;;;6.40;;
21777;SDS011;11050;52.222;20.916;2022-11-18T07:23:50;10.20;;;6.17;;
21777;SDS011;11050;52.222;20.916;2022-11-18T07:26:17;11.63;;;6.10;;
21777;SDS011;11050;52.222;20.916;2022-11-18T07:28:43;11.77;;;6.47;;
21777;SDS011;11050;52.222;20.916;2022-11-18T07:31:10;11.07;;;6.43;;
21777;SDS011;11050;52.222;20.916;2022-11-18T07:33:42;15.47;;;6.73;;
21777;SDS011;11050;52.222;20.916;2022-11-18T07:38:43;12.10;;;6.73;;
21777;SDS011;11050;52.222;20.916;2022-11-18T07:41:22;9.63;;;6.00;;
21777;SDS011;11050;52.222;20.916;2022-11-18T07:43:52;10.63;;;5.97;;
21777;SDS011;11050;52.222;20.916;2022-11-18T07:48:53;11.53;;;6.03;;
21777;SDS011;11050;52.222;20.916;2022-11-18T07:51:23;10.40;;;6.23;;
21777;SDS011;11050;52.222;20.916;2022-11-18T07:53:51;10.17;;;5.87;;
21777;SDS011;11050;52.222;20.916;2022-11-18T07:56:18;10.70;;;5.53;;
21777;SDS011;11050;52.222;20.916;2022-11-18T07:58:44;11.50;;;6.37;;
21777;SDS011;11050;52.222;20.916;2022-11-18T08:01:15;10.03;;;5.93;;
21777;SDS011;11050;52.222;20.916;2022-11-18T08:03:44;9.67;;;5.83;;
21777;SDS011;11050;52.222;20.916;2022-11-18T08:06:11;10.00;;;6.07;;
21777;SDS011;11050;52.222;20.916;2022-11-18T08:08:40;11.00;;;6.07;;
21777;SDS011;11050;52.222;20.916;2022-11-18T08:11:09;10.30;;;5.53;;
21777;SDS011;11050;52.222;20.916;2022-11-18T08:13:39;6.73;;;4.47;;
21777;SDS011;11050;52.222;20.916;2022-11-18T08:16:10;8.87;;;5.00;;
21777;SDS011;11050;52.222;20.916;2022-11-18T08:18:40;8.57;;;4.83;;
21777;SDS011;11050;52.222;20.916;2022-11-18T08:21:06;7.40;;;4.40;;
21777;SDS011;11050;52.222;20.916;2022-11-18T08:23:32;7.27;;;4.77;;
21777;SDS011;11050;52.222;20.916;2022-11-18T08:26:02;7.13;;;4.60;;
21777;SDS011;11050;52.222;20.916;2022-11-18T08:28:31;5.97;;;4.20;;
21777;SDS011;11050;52.222;20.916;2022-11-18T08:30:57;7.20;;;4.87;;
21777;SDS011;11050;52.222;20.916;2022-11-18T08:33:23;8.70;;;4.67;;
21777;SDS011;11050;52.222;20.916;2022-11-18T08:35:49;7.00;;;4.50;;
21777;SDS011;11050;52.222;20.916;2022-11-18T08:38:16;7.47;;;4.57;;
21777;SDS011;11050;52.222;20.916;2022-11-18T08:40:43;6.60;;;4.13;;
21777;SDS011;11050;52.222;20.916;2022-11-18T08:43:12;6.03;;;4.27;;
21777;SDS011;11050;52.222;20.916;2022-11-18T08:45:38;7.53;;;4.33;;
21777;SDS011;11050;52.222;20.916;2022-11-18T08:48:05;6.77;;;4.57;;
21777;SDS011;11050;52.222;20.916;2022-11-18T08:50:31;7.23;;;4.57;;
21777;SDS011;11050;52.222;20.916;2022-11-18T08:52:56;8.20;;;4.30;;
21777;SDS011;11050;52.222;20.916;2022-11-18T08:55:22;7.50;;;4.53;;
21777;SDS011;11050;52.222;20.916;2022-11-18T08:57:48;6.40;;;3.97;;
21777;SDS011;11050;52.222;20.916;2022-11-18T09:00:14;7.13;;;4.77;;
21777;SDS011;11050;52.222;20.916;2022-11-18T09:02:40;6.10;;;4.20;;
21777;SDS011;11050;52.222;20.916;2022-11-18T09:05:06;6.33;;;4.23;;
21777;SDS011;11050;52.222;20.916;2022-11-18T09:07:32;7.27;;;4.53;;
21777;SDS011;11050;52.222;20.916;2022-11-18T09:09:57;6.53;;;4.40;;
21777;SDS011;11050;52.222;20.916;2022-11-18T09:12:23;6.93;;;4.50;;
21777;SDS011;11050;52.222;20.916;2022-11-18T09:14:49;6.70;;;4.50;;
21777;SDS011;11050;52.222;20.916;2022-11-18T09:17:14;7.87;;;4.80;;
21777;SDS011;11050;52.222;20.916;2022-11-18T09:19:40;8.50;;;4.67;;
21777;SDS011;11050;52.222;20.916;2022-11-18T09:22:06;7.50;;;4.80;;
21777;SDS011;11050;52.222;20.916;2022-11-18T09:24:33;6.47;;;4.67;;
21777;SDS011;11050;52.222;20.916;2022-11-18T09:27:04;6.47;;;4.30;;
21777;SDS011;11050;52.222;20.916;2022-11-18T09:29:31;7.70;;;5.37;;
21777;SDS011;11050;52.222;20.916;2022-11-18T09:31:57;9.60;;;5.43;;
21777;SDS011;11050;52.222;20.916;2022-11-18T09:34:26;8.37;;;5.80;;
21777;SDS011;11050;52.222;20.916;2022-11-18T09:36:53;9.87;;;5.17;;
21777;SDS011;11050;52.222;20.916;2022-11-18T09:39:21;10.33;;;5.67;;
21777;SDS011;11050;52.222;20.916;2022-11-18T09:49:54;8.70;;;4.77;;
21777;SDS011;11050;52.222;20.916;2022-11-18T09:52:26;8.30;;;4.73;;
21777;SDS011;11050;52.222;20.916;2022-11-18T09:55:00;6.43;;;4.63;;
21777;SDS011;11050;52.222;20.916;2022-11-18T09:57:44;11.03;;;5.53;;
21777;SDS011;11050;52.222;20.916;2022-11-18T10:00:15;9.70;;;4.73;;
21777;SDS011;11050;52.222;20.916;2022-11-18T10:25:29;7.77;;;4.50;;
21777;SDS011;11050;52.222;20.916;2022-11-18T10:27:54;6.73;;;4.13;;
21777;SDS011;11050;52.222;20.916;2022-11-18T10:30:36;6.77;;;3.83;;
21777;SDS011;11050;52.222;20.916;2022-11-18T10:33:02;8.47;;;4.10;;
21777;SDS011;11050;52.222;20.916;2022-11-18T10:35:47;5.87;;;3.90;;
21777;SDS011;11050;52.222;20.916;2022-11-18T10:40:45;5.47;;;3.57;;
21777;SDS011;11050;52.222;20.916;2022-11-18T10:43:45;5.03;;;3.50;;
21777;SDS011;11050;52.222;20.916;2022-11-18T10:51:35;4.77;;;3.30;;
21777;SDS011;11050;52.222;20.916;2022-11-18T10:54:12;5.57;;;3.57;;
21777;SDS011;11050;52.222;20.916;2022-11-18T10:59:48;5.50;;;3.60;;
21777;SDS011;11050;52.222;20.916;2022-11-18T11:02:32;5.07;;;3.43;;
21777;SDS011;11050;52.222;20.916;2022-11-18T11:05:15;5.30;;;3.97;;
21777;SDS011;11050;52.222;20.916;2022-11-18T11:07:45;5.23;;;3.60;;
21777;SDS011;11050;52.222;20.916;2022-11-18T11:10:30;7.17;;;4.07;;
21777;SDS011;11050;52.222;20.916;2022-11-18T11:13:00;5.50;;;3.87;;
21777;SDS011;11050;52.222;20.916;2022-11-18T11:15:38;8.83;;;4.40;;
21777;SDS011;11050;52.222;20.916;2022-11-18T11:18:25;5.40;;;3.53;;
21777;SDS011;11050;52.222;20.916;2022-11-18T11:21:17;6.93;;;3.83;;
21777;SDS011;11050;52.222;20.916;2022-11-18T11:23:46;8.63;;;3.93;;
21777;SDS011;11050;52.222;20.916;2022-11-18T11:31:51;7.83;;;4.50;;
21777;SDS011;11050;52.222;20.916;2022-11-18T11:43:03;6.93;;;4.13;;
21777;SDS011;11050;52.222;20.916;2022-11-18T11:51:38;5.73;;;4.07;;
21777;SDS011;11050;52.222;20.916;2022-11-18T11:54:19;6.80;;;4.53;;
21777;SDS011;11050;52.222;20.916;2022-11-18T11:59:59;7.23;;;4.60;;
21777;SDS011;11050;52.222;20.916;2022-11-18T12:02:43;9.03;;;5.37;;
21777;SDS011;11050;52.222;20.916;2022-11-18T12:05:52;6.80;;;4.33;;
21777;SDS011;11050;52.222;20.916;2022-11-18T12:16:32;7.90;;;4.17;;
21777;SDS011;11050;52.222;20.916;2022-11-18T12:19:16;6.10;;;3.40;;
21777;SDS011;11050;52.222;20.916;2022-11-18T12:40:29;5.73;;;3.23;;
21777;SDS011;11050;52.222;20.916;2022-11-18T12:49:54;6.67;;;3.67;;
21777;SDS011;11050;52.222;20.916;2022-11-18T12:51:47;4.00;;;2.80;;
21777;SDS011;11050;52.222;20.916;2022-11-18T12:56:57;5.03;;;3.30;;
21777;SDS011;11050;52.222;20.916;2022-11-18T12:59:39;6.07;;;3.00;;
21777;SDS011;11050;52.222;20.916;2022-11-18T13:04:31;4.60;;;3.37;;
21777;SDS011;11050;52.222;20.916;2022-11-18T13:06:57;5.43;;;3.23;;
21777;SDS011;11050;52.222;20.916;2022-11-18T13:09:24;7.93;;;3.83;;
21777;SDS011;11050;52.222;20.916;2022-11-18T13:12:00;11.73;;;4.53;;
21777;SDS011;11050;52.222;20.916;2022-11-18T13:14:33;12.13;;;4.13;;
21777;SDS011;11050;52.222;20.916;2022-11-18T13:17:24;6.27;;;3.60;;
21777;SDS011;11050;52.222;20.916;2022-11-18T13:22:49;7.50;;;4.50;;
21777;SDS011;11050;52.222;20.916;2022-11-18T13:25:39;7.77;;;4.00;;
21777;SDS011;11050;52.222;20.916;2022-11-18T13:33:54;10.90;;;3.80;;
21777;SDS011;11050;52.222;20.916;2022-11-18T13:36:42;7.17;;;3.87;;
21777;SDS011;11050;52.222;20.916;2022-11-18T13:39:15;6.93;;;4.20;;
21777;SDS011;11050;52.222;20.916;2022-11-18T13:42:04;9.03;;;4.20;;
21777;SDS011;11050;52.222;20.916;2022-11-18T13:44:38;6.23;;;3.67;;
21777;SDS011;11050;52.222;20.916;2022-11-18T13:50:02;8.87;;;4.03;;
21777;SDS011;11050;52.222;20.916;2022-11-18T13:56:00;4.87;;;3.73;;
21777;SDS011;11050;52.222;20.916;2022-11-18T14:01:21;7.43;;;4.53;;
21777;SDS011;11050;52.222;20.916;2022-11-18T14:03:56;5.90;;;4.00;;
21777;SDS011;11050;52.222;20.916;2022-11-18T14:06:43;11.00;;;4.73;;
21777;SDS011;11050;52.222;20.916;2022-11-18T14:11:39;8.07;;;4.63;;
21777;SDS011;11050;52.222;20.916;2022-11-18T14:14:09;9.33;;;4.33;;
21777;SDS011;11050;52.222;20.916;2022-11-18T14:16:50;8.97;;;4.93;;
21777;SDS011;11050;52.222;20.916;2022-11-18T14:19:29;11.10;;;5.53;;
21777;SDS011;11050;52.222;20.916;2022-11-18T14:22:03;9.40;;;5.40;;
21777;SDS011;11050;52.222;20.916;2022-11-18T14:24:35;10.97;;;5.73;;
21777;SDS011;11050;52.222;20.916;2022-11-18T14:27:26;9.73;;;5.93;;
21777;SDS011;11050;52.222;20.916;2022-11-18T14:35:38;11.17;;;6.93;;
21777;SDS011;11050;52.222;20.916;2022-11-18T14:38:12;9.93;;;6.13;;
21777;SDS011;11050;52.222;20.916;2022-11-18T14:40:44;10.97;;;6.80;;
21777;SDS011;11050;52.222;20.916;2022-11-18T14:43:10;11.00;;;6.40;;
21777;SDS011;11050;52.222;20.916;2022-11-18T14:45:37;13.30;;;7.43;;
21777;SDS011;11050;52.222;20.916;2022-11-18T14:48:04;12.90;;;7.10;;
21777;SDS011;11050;52.222;20.916;2022-11-18T14:50:34;13.17;;;7.43;;
21777;SDS011;11050;52.222;20.916;2022-11-18T14:52:59;14.10;;;8.10;;
21777;SDS011;11050;52.222;20.916;2022-11-18T14:55:25;11.07;;;7.33;;
21777;SDS011;11050;52.222;20.916;2022-11-18T14:57:51;16.73;;;8.53;;
21777;SDS011;11050;52.222;20.916;2022-11-18T15:00:16;11.57;;;8.17;;
21777;SDS011;11050;52.222;20.916;2022-11-18T15:02:43;15.07;;;7.97;;
21777;SDS011;11050;52.222;20.916;2022-11-18T15:05:09;11.13;;;7.60;;
21777;SDS011;11050;52.222;20.916;2022-11-18T15:07:35;10.60;;;7.27;;
21777;SDS011;11050;52.222;20.916;2022-11-18T15:10:01;10.27;;;7.10;;
21777;SDS011;11050;52.222;20.916;2022-11-18T15:12:27;12.03;;;7.93;;
21777;SDS011;11050;52.222;20.916;2022-11-18T15:14:53;14.23;;;8.57;;
21777;SDS011;11050;52.222;20.916;2022-11-18T15:17:19;13.40;;;8.27;;
21777;SDS011;11050;52.222;20.916;2022-11-18T15:19:45;12.23;;;7.93;;
21777;SDS011;11050;52.222;20.916;2022-11-18T15:22:10;14.37;;;9.40;;
21777;SDS011;11050;52.222;20.916;2022-11-18T15:24:36;21.67;;;10.70;;
21777;SDS011;11050;52.222;20.916;2022-11-18T15:27:02;74.63;;;21.90;;
21777;SDS011;11050;52.222;20.916;2022-11-18T15:29:29;27.90;;;11.00;;
21777;SDS011;11050;52.222;20.916;2022-11-18T15:31:55;20.03;;;9.63;;
21777;SDS011;11050;52.222;20.916;2022-11-18T15:34:21;13.43;;;8.20;;
21777;SDS011;11050;52.222;20.916;2022-11-18T15:36:47;15.97;;;8.77;;
21777;SDS011;11050;52.222;20.916;2022-11-18T15:39:13;13.40;;;7.13;;
21777;SDS011;11050;52.222;20.916;2022-11-18T15:41:40;11.93;;;7.93;;
21777;SDS011;11050;52.222;20.916;2022-11-18T15:44:07;12.27;;;6.63;;
21777;SDS011;11050;52.222;20.916;2022-11-18T15:46:35;10.33;;;6.77;;
21777;SDS011;11050;52.222;20.916;2022-11-18T15:49:00;7.97;;;5.73;;
21777;SDS011;11050;52.222;20.916;2022-11-18T15:51:27;10.37;;;6.60;;
21777;SDS011;11050;52.222;20.916;2022-11-18T15:53:54;11.90;;;6.17;;
21777;SDS011;11050;52.222;20.916;2022-11-18T15:56:25;11.20;;;6.37;;
21777;SDS011;11050;52.222;20.916;2022-11-18T15:59:03;12.60;;;6.67;;
21777;SDS011;11050;52.222;20.916;2022-11-18T16:01:31;12.23;;;7.23;;
21777;SDS011;11050;52.222;20.916;2022-11-18T16:04:06;11.43;;;6.63;;
21777;SDS011;11050;52.222;20.916;2022-11-18T16:06:35;10.17;;;5.80;;
21777;SDS011;11050;52.222;20.916;2022-11-18T16:09:01;12.60;;;7.00;;
21777;SDS011;11050;52.222;20.916;2022-11-18T16:11:29;13.00;;;8.13;;
21777;SDS011;11050;52.222;20.916;2022-11-18T16:14:15;14.63;;;7.33;;
21777;SDS011;11050;52.222;20.916;2022-11-18T16:16:44;11.67;;;6.77;;
21777;SDS011;11050;52.222;20.916;2022-11-18T16:19:12;13.10;;;6.63;;
21777;SDS011;11050;52.222;20.916;2022-11-18T16:21:42;12.87;;;7.50;;
21777;SDS011;11050;52.222;20.916;2022-11-18T16:24:12;12.10;;;7.30;;
21777;SDS011;11050;52.222;20.916;2022-11-18T16:26:42;11.90;;;7.40;;
21777;SDS011;11050;52.222;20.916;2022-11-18T16:29:09;12.67;;;7.13;;
21777;SDS011;11050;52.222;20.916;2022-11-18T16:31:36;12.30;;;7.37;;
21777;SDS011;11050;52.222;20.916;2022-11-18T16:34:23;10.77;;;6.93;;
21777;SDS011;11050;52.222;20.916;2022-11-18T16:36:53;12.53;;;7.03;;
21777;SDS011;11050;52.222;20.916;2022-11-18T16:39:24;13.33;;;7.37;;
21777;SDS011;11050;52.222;20.916;2022-11-18T16:41:52;11.53;;;6.93;;
21777;SDS011;11050;52.222;20.916;2022-11-18T16:44:23;11.13;;;6.93;;
21777;SDS011;11050;52.222;20.916;2022-11-18T16:46:55;15.03;;;7.80;;
21777;SDS011;11050;52.222;20.916;2022-11-18T16:49:22;13.97;;;7.87;;
21777;SDS011;11050;52.222;20.916;2022-11-18T16:51:51;12.70;;;8.07;;
21777;SDS011;11050;52.222;20.916;2022-11-18T16:54:21;13.77;;;7.50;;
21777;SDS011;11050;52.222;20.916;2022-11-18T16:56:54;15.00;;;7.33;;
21777;SDS011;11050;52.222;20.916;2022-11-18T16:59:23;13.93;;;7.17;;
21777;SDS011;11050;52.222;20.916;2022-11-18T17:01:52;14.50;;;7.73;;
21777;SDS011;11050;52.222;20.916;2022-11-18T17:04:20;12.10;;;7.57;;
21777;SDS011;11050;52.222;20.916;2022-11-18T17:06:48;14.33;;;8.47;;
21777;SDS011;11050;52.222;20.916;2022-11-18T17:09:16;14.77;;;8.17;;
21777;SDS011;11050;52.222;20.916;2022-11-18T17:11:44;12.87;;;7.80;;
21777;SDS011;11050;52.222;20.916;2022-11-18T17:14:11;18.97;;;9.13;;
21777;SDS011;11050;52.222;20.916;2022-11-18T17:16:37;14.73;;;7.80;;
21777;SDS011;11050;52.222;20.916;2022-11-18T17:19:03;19.63;;;10.20;;
21777;SDS011;11050;52.222;20.916;2022-11-18T17:21:30;24.63;;;10.60;;
21777;SDS011;11050;52.222;20.916;2022-11-18T17:23:56;20.37;;;10.30;;
21777;SDS011;11050;52.222;20.916;2022-11-18T17:26:22;23.33;;;10.50;;
21777;SDS011;11050;52.222;20.916;2022-11-18T17:28:51;20.27;;;9.50;;